createdAt,value
2023-11-23T00:00:22.355Z,100588.16
2023-11-23T00:02:51.339Z,100581.41
2023-11-23T00:05:21.655Z,100575.56
2023-11-23T00:07:50.598Z,100575.31
2023-11-23T00:10:19.326Z,100573.38
2023-11-23T00:12:48.188Z,100571.66
2023-11-23T00:15:17.638Z,100562.31
2023-11-23T00:17:48.460Z,100552.03
2023-11-23T00:20:17.465Z,100545.19
2023-11-23T00:22:46.258Z,100537.88
2023-11-23T00:25:15.490Z,100536.31
2023-11-23T00:27:44.311Z,100531.91
2023-11-23T00:30:14.665Z,100535.38
2023-11-23T00:32:44.448Z,100536.31
2023-11-23T00:35:15.106Z,100532.84
2023-11-23T00:37:46.437Z,100524.72
2023-11-23T00:40:15.350Z,100522.97
2023-11-23T00:42:44.113Z,100529.88
2023-11-23T00:45:16.288Z,100520.69
2023-11-23T00:47:45.394Z,100528.28
2023-11-23T00:50:15.734Z,100529.41
2023-11-23T00:52:45.058Z,100528.78
2023-11-23T00:55:14.240Z,100533.94
2023-11-23T00:57:42.976Z,100530.50
2023-11-23T01:00:13.618Z,100537.44
2023-11-23T01:02:43.500Z,100517.16
2023-11-23T01:05:13.586Z,100520.63
2023-11-23T01:07:46.045Z,100529.41
2023-11-23T01:10:15.007Z,100530.56
2023-11-23T01:13:37.980Z,100536.53
2023-11-23T01:16:09.574Z,100533.03
2023-11-23T01:18:54.225Z,100537.19
2023-11-23T01:22:17.168Z,100535.44
2023-11-23T01:24:47.475Z,100541.19
2023-11-23T01:27:16.372Z,100539.75
2023-11-23T01:30:22.141Z,100533.88
2023-11-23T01:35:35.269Z,100532.59
2023-11-23T01:38:04.256Z,100523.56
2023-11-23T01:43:48.146Z,100503.56
2023-11-23T01:46:39.385Z,100508.03
2023-11-23T01:49:09.532Z,100509.13
2023-11-23T01:51:38.707Z,100505.50
2023-11-23T01:54:08.540Z,100485.88
2023-11-23T01:56:38.922Z,100484.63
2023-11-23T01:59:07.866Z,100491.84
2023-11-23T02:01:37.181Z,100491.34
2023-11-23T02:04:06.483Z,100457.63
2023-11-23T02:09:15.999Z,100458.66
2023-11-23T02:11:46.325Z,100467.13
2023-11-23T02:14:16.048Z,100463.69
2023-11-23T02:16:46.019Z,100466.53
2023-11-23T02:19:14.831Z,100461.19
2023-11-23T02:21:44.974Z,100462.38
2023-11-23T02:24:15.726Z,100465.88
2023-11-23T02:26:44.558Z,100464.97
2023-11-23T02:29:13.339Z,100467.13
2023-11-23T02:31:42.108Z,100463.09
2023-11-23T02:34:11.003Z,100465.72
2023-11-23T02:36:39.915Z,100465.56
2023-11-23T02:39:10.764Z,100455.34
2023-11-23T02:41:41.093Z,100405.19
2023-11-23T02:44:10.367Z,100452.69
2023-11-23T02:46:39.368Z,100453.47
2023-11-23T02:49:08.207Z,100451.19
2023-11-23T02:51:36.968Z,100448.88
2023-11-23T02:54:07.811Z,100436.53
2023-11-23T02:56:37.812Z,100434.09
2023-11-23T02:59:09.318Z,100436.72
2023-11-23T03:01:38.501Z,100442.72
2023-11-23T03:04:07.509Z,100438.19
2023-11-23T03:06:36.484Z,100436.47
2023-11-23T03:09:07.066Z,100422.16
2023-11-23T03:11:36.073Z,100417.13
2023-11-23T03:14:05.416Z,100421.75
2023-11-23T03:16:35.723Z,100420.94
2023-11-23T03:19:04.809Z,100428.47
2023-11-23T03:21:33.766Z,100423.75
2023-11-23T03:24:02.600Z,100425.03
2023-11-23T03:26:31.485Z,100429.56
2023-11-23T03:29:00.202Z,100430.63
2023-11-23T03:31:29.077Z,100431.63
2023-11-23T03:33:59.255Z,100424.16
2023-11-23T03:36:28.191Z,100431.56
2023-11-23T03:39:00.209Z,100423.16
2023-11-23T03:41:29.068Z,100422.63
2023-11-23T03:43:59.044Z,100418.53
2023-11-23T03:46:28.503Z,100421.13
2023-11-23T03:48:58.693Z,100422.72
2023-11-23T03:51:27.713Z,100426.44
2023-11-23T03:53:56.576Z,100285.56
2023-11-23T03:56:25.809Z,100418.09
2023-11-23T03:58:54.535Z,100397.41
2023-11-23T04:01:24.796Z,100412.13
2023-11-23T04:03:53.818Z,100421.03
2023-11-23T04:06:24.506Z,100435.19
2023-11-23T04:08:54.140Z,100411.31
2023-11-23T04:11:24.946Z,100432.00
2023-11-23T04:13:53.876Z,100436.66
2023-11-23T04:16:22.623Z,100441.00
2023-11-23T04:18:50.415Z,100450.44
2023-11-23T04:21:19.718Z,100440.50
2023-11-23T04:23:50.150Z,100441.50
2023-11-23T04:26:19.014Z,100447.41
2023-11-23T04:28:49.664Z,100436.19
2023-11-23T04:31:19.152Z,100423.53
2023-11-23T04:33:47.793Z,100424.56
2023-11-23T04:36:16.742Z,100422.09
2023-11-23T04:38:45.715Z,100420.34
2023-11-23T04:41:16.155Z,100416.75
2023-11-23T04:43:45.088Z,100414.91
2023-11-23T04:46:14.196Z,100353.59
2023-11-23T04:48:43.132Z,100418.88
2023-11-23T04:51:12.036Z,100414.56
2023-11-23T04:53:40.832Z,100380.88
2023-11-23T04:56:10.242Z,100405.88
2023-11-23T04:58:40.964Z,100399.78
2023-11-23T05:01:10.557Z,100400.59
2023-11-23T05:03:39.382Z,100400.59
2023-11-23T05:06:09.680Z,100400.28
2023-11-23T05:08:41.065Z,100336.53
2023-11-23T05:11:10.189Z,100407.91
2023-11-23T05:13:40.587Z,100377.09
2023-11-23T05:16:10.460Z,100412.66
2023-11-23T05:18:41.992Z,100414.38
2023-11-23T05:21:12.950Z,100414.50
2023-11-23T05:23:41.688Z,100406.03
2023-11-23T05:26:10.582Z,100393.97
2023-11-23T05:28:41.151Z,100405.50
2023-11-23T05:31:10.650Z,100401.66
2023-11-23T05:33:39.871Z,100403.41
2023-11-23T05:36:11.504Z,100399.22
2023-11-23T05:38:40.477Z,100410.16
2023-11-23T05:41:09.236Z,100409.44
2023-11-23T05:43:42.938Z,100405.91
2023-11-23T05:46:14.000Z,100409.72
2023-11-23T05:48:43.861Z,100400.47
2023-11-23T05:51:13.269Z,100385.59
2023-11-23T05:53:43.472Z,100393.06
2023-11-23T05:56:12.633Z,100394.06
2023-11-23T05:58:42.755Z,100396.78
2023-11-23T06:01:12.864Z,100393.47
2023-11-23T06:03:43.512Z,100359.16
2023-11-23T06:06:20.644Z,100384.84
2023-11-23T06:13:08.685Z,100402.69
2023-11-23T06:15:39.984Z,100414.34
2023-11-23T06:18:13.856Z,100210.47
2023-11-23T06:21:41.293Z,100405.72
2023-11-23T06:27:20.100Z,100403.00
2023-11-23T06:29:49.357Z,100409.28
2023-11-23T06:32:20.751Z,100403.31
2023-11-23T06:34:49.811Z,100401.88
2023-11-23T06:37:19.086Z,100403.75
2023-11-23T06:39:48.217Z,100400.16
2023-11-23T06:42:17.041Z,100377.56
2023-11-23T06:44:48.214Z,100339.41
2023-11-23T06:47:18.457Z,100386.75
2023-11-23T06:49:47.561Z,100375.88
2023-11-23T06:52:16.671Z,100375.31
2023-11-23T06:54:45.705Z,100387.97
2023-11-23T06:57:14.735Z,100294.53
2023-11-23T06:59:43.865Z,100384.94
2023-11-23T07:02:13.536Z,100394.28
2023-11-23T07:04:44.812Z,100365.97
2023-11-23T07:07:13.800Z,100312.13
2023-11-23T07:09:42.552Z,100375.00
2023-11-23T07:12:12.479Z,100317.00
2023-11-23T07:14:43.788Z,100382.69
2023-11-23T07:17:12.775Z,100381.75
2023-11-23T07:19:41.820Z,100378.31
2023-11-23T07:22:12.446Z,100368.25
2023-11-23T07:24:42.252Z,100367.34
2023-11-23T07:27:11.283Z,100359.78
2023-11-23T07:29:40.619Z,100365.75
2023-11-23T07:32:09.915Z,100366.50
2023-11-23T07:34:40.452Z,100359.91
2023-11-23T07:37:11.863Z,100327.16
2023-11-23T07:39:45.663Z,100268.88
2023-11-23T07:42:17.325Z,100350.19
2023-11-23T07:44:47.912Z,100336.31
2023-11-23T07:47:17.747Z,100372.66
2023-11-23T07:49:47.158Z,100367.09
2023-11-23T07:52:16.296Z,100376.63
2023-11-23T07:54:46.645Z,100372.94
2023-11-23T07:57:16.247Z,100378.09
2023-11-23T07:59:46.167Z,100362.44
2023-11-23T08:02:15.310Z,100344.03
2023-11-23T08:04:44.259Z,100346.81
2023-11-23T08:07:13.220Z,100322.50
2023-11-23T08:09:41.986Z,100343.31
2023-11-23T08:12:13.207Z,100347.81
2023-11-23T08:14:42.043Z,100322.06
2023-11-23T08:17:13.126Z,100332.00
2023-11-23T08:19:42.150Z,100336.16
2023-11-23T08:22:14.563Z,100153.28
2023-11-23T08:24:43.298Z,100324.44
2023-11-23T08:27:13.686Z,100340.53
2023-11-23T08:29:42.465Z,100344.00
2023-11-23T08:32:14.275Z,100313.31
2023-11-23T08:34:44.868Z,100333.06
2023-11-23T08:37:14.193Z,100303.00
2023-11-23T08:39:43.162Z,100321.72
2023-11-23T08:42:13.751Z,100311.03
2023-11-23T08:44:42.593Z,100323.38
2023-11-23T08:47:11.418Z,100317.94
2023-11-23T08:49:40.773Z,100313.03
2023-11-23T08:52:09.769Z,100307.19
2023-11-23T08:54:38.528Z,100316.47
2023-11-23T08:57:08.115Z,100322.69
2023-11-23T08:59:39.122Z,100320.75
2023-11-23T09:02:17.257Z,100325.66
2023-11-23T09:04:50.448Z,100328.44
2023-11-23T09:07:21.752Z,100317.31
2023-11-23T09:09:50.663Z,100301.88
2023-11-23T09:12:19.488Z,100309.75
2023-11-23T09:14:54.574Z,100302.94
2023-11-23T09:17:23.372Z,100308.84
2023-11-23T09:19:52.081Z,100294.78
2023-11-23T09:22:20.851Z,100243.97
2023-11-23T09:24:49.933Z,100296.31
2023-11-23T09:27:19.868Z,100289.47
2023-11-23T09:29:50.232Z,100297.47
2023-11-23T09:32:20.351Z,100289.78
2023-11-23T09:34:49.559Z,100286.38
2023-11-23T09:37:18.687Z,100286.53
2023-11-23T09:39:48.384Z,100272.72
2023-11-23T09:42:17.881Z,100269.97
2023-11-23T09:44:56.176Z,100261.03
2023-11-23T09:47:33.186Z,100274.56
2023-11-23T09:50:04.822Z,100268.47
2023-11-23T09:52:34.583Z,100253.53
2023-11-23T09:55:05.414Z,100241.16
2023-11-23T09:57:34.187Z,100230.03
2023-11-23T10:00:03.299Z,100218.31
2023-11-23T10:02:38.412Z,100211.22
2023-11-23T10:05:10.691Z,100209.94
2023-11-23T10:07:39.562Z,100176.72
2023-11-23T10:10:09.678Z,100201.84
2023-11-23T10:12:39.047Z,100190.09
2023-11-23T10:15:09.744Z,100179.91
2023-11-23T10:17:41.447Z,100178.13
2023-11-23T10:20:12.084Z,100162.16
2023-11-23T10:22:46.458Z,100151.44
2023-11-23T10:25:27.378Z,100158.47
2023-11-23T10:27:59.873Z,100160.47
2023-11-23T10:30:29.124Z,100147.34
2023-11-23T10:33:00.026Z,100129.59
2023-11-23T10:35:37.168Z,100117.56
2023-11-23T10:38:06.417Z,100117.50
2023-11-23T10:40:35.603Z,100120.06
2023-11-23T10:43:05.115Z,100116.66
2023-11-23T10:45:36.340Z,100109.94
2023-11-23T10:48:08.108Z,100104.88
2023-11-23T10:50:37.474Z,99912.06
2023-11-23T10:53:06.263Z,100081.06
2023-11-23T10:55:36.162Z,100078.63
2023-11-23T10:58:09.592Z,100078.19
2023-11-23T11:00:40.766Z,100071.63
2023-11-23T11:03:14.202Z,100061.34
2023-11-23T11:05:47.614Z,100084.53
2023-11-23T11:08:21.603Z,100083.88
2023-11-23T11:10:52.714Z,100082.59
2023-11-23T11:13:23.976Z,100073.63
2023-11-23T11:15:54.494Z,100073.03
2023-11-23T11:18:26.053Z,100062.22
2023-11-23T11:21:10.585Z,100035.84
2023-11-23T11:23:45.667Z,100034.84
2023-11-23T11:26:16.073Z,100038.06
2023-11-23T11:28:45.553Z,100033.75
2023-11-23T11:31:16.411Z,100030.38
2023-11-23T11:33:53.269Z,100021.09
2023-11-23T11:36:22.107Z,100019.38
2023-11-23T11:38:57.032Z,100020.31
2023-11-23T11:41:30.983Z,100011.38
2023-11-23T11:44:00.968Z,100024.56
2023-11-23T11:46:30.730Z,100006.06
2023-11-23T11:49:01.150Z,100001.28
2023-11-23T11:51:31.122Z,99988.81
2023-11-23T11:54:00.837Z,99959.03
2023-11-23T11:56:30.314Z,99961.22
2023-11-23T11:59:00.643Z,99982.34
2023-11-23T12:01:29.635Z,99975.53
2023-11-23T12:03:58.472Z,99963.84
2023-11-23T12:06:29.214Z,99962.13
2023-11-23T12:08:59.951Z,99956.06
2023-11-23T12:11:32.238Z,99956.09
2023-11-23T12:14:03.001Z,99951.06
2023-11-23T12:16:36.819Z,99941.84
2023-11-23T12:19:20.875Z,99944.66
2023-11-23T12:21:58.085Z,99933.06
2023-11-23T12:24:27.642Z,99913.69
2023-11-23T12:26:57.407Z,99928.75
2023-11-23T12:29:26.271Z,99928.63
2023-11-23T12:31:55.525Z,99929.59
2023-11-23T12:34:24.891Z,99917.91
2023-11-23T12:36:53.973Z,99902.81
2023-11-23T12:39:24.634Z,99896.19
2023-11-23T12:41:55.544Z,99897.00
2023-11-23T12:44:24.879Z,99892.50
2023-11-23T12:46:55.401Z,99888.75
2023-11-23T12:49:24.698Z,99880.81
2023-11-23T12:51:54.210Z,99870.50
2023-11-23T12:54:24.394Z,99865.38
2023-11-23T12:56:53.908Z,99859.41
2023-11-23T12:59:22.699Z,99856.97
2023-11-23T13:01:53.822Z,99855.22
2023-11-23T13:04:26.165Z,99809.16
2023-11-23T13:06:57.107Z,99836.72
2023-11-23T13:09:29.354Z,99837.59
2023-11-23T13:12:00.212Z,99836.72
2023-11-23T13:14:29.203Z,99833.25
2023-11-23T13:16:58.083Z,99829.88
2023-11-23T13:19:34.022Z,99823.16
2023-11-23T13:22:09.541Z,99809.59
2023-11-23T13:24:41.106Z,99813.66
2023-11-23T13:27:10.522Z,99803.38
2023-11-23T13:29:39.450Z,99795.75
2023-11-23T13:32:08.856Z,99793.97
2023-11-23T13:34:38.673Z,99792.28
2023-11-23T13:37:07.485Z,99788.88
2023-11-23T13:39:38.126Z,99792.19
2023-11-23T13:42:09.281Z,99788.78
2023-11-23T13:44:38.407Z,99791.25
2023-11-23T13:47:08.709Z,99792.03
2023-11-23T13:49:39.535Z,99791.09
2023-11-23T13:52:11.631Z,99784.38
2023-11-23T13:54:40.555Z,99783.56
2023-11-23T13:57:10.756Z,99773.44
2023-11-23T13:59:39.660Z,99759.97
2023-11-23T14:02:09.601Z,99763.28
2023-11-23T14:04:38.530Z,99758.22
2023-11-23T14:07:07.420Z,99755.66
2023-11-23T14:09:36.429Z,99752.31
2023-11-23T14:12:05.613Z,99747.16
2023-11-23T14:14:35.878Z,99749.72
2023-11-23T14:17:04.790Z,99744.72
2023-11-23T14:19:33.574Z,99748.09
2023-11-23T14:22:02.525Z,99743.03
2023-11-23T14:24:31.566Z,99725.88
2023-11-23T14:27:00.698Z,99732.03
2023-11-23T14:29:29.870Z,99725.25
2023-11-23T14:32:00.233Z,99725.25
2023-11-23T14:34:30.001Z,99733.69
2023-11-23T14:36:59.749Z,99728.53
2023-11-23T14:39:29.740Z,99723.44
2023-11-23T14:41:59.218Z,99709.09
2023-11-23T14:44:28.388Z,99709.94
2023-11-23T14:46:57.227Z,99707.41
2023-11-23T14:49:31.769Z,99683.59
2023-11-23T14:52:00.818Z,99624.75
2023-11-23T14:54:37.048Z,99698.84
2023-11-23T14:57:09.227Z,99683.63
2023-11-23T14:59:38.442Z,99674.31
2023-11-23T15:02:08.302Z,99671.75
2023-11-23T15:04:38.758Z,99669.19
2023-11-23T15:07:08.527Z,99652.34
2023-11-23T15:09:37.950Z,99663.28
2023-11-23T15:12:07.861Z,99654.75
2023-11-23T15:14:37.438Z,99639.59
2023-11-23T15:17:06.387Z,99634.47
2023-11-23T15:19:36.040Z,99632.78
2023-11-23T15:22:07.453Z,99622.63
2023-11-23T15:24:37.328Z,99637.81
2023-11-23T15:27:08.791Z,99626.00
2023-11-23T15:29:38.116Z,99587.72
2023-11-23T15:32:08.945Z,99612.41
2023-11-23T15:34:37.854Z,99602.16
2023-11-23T15:37:08.042Z,99615.72
2023-11-23T15:39:37.225Z,99613.91
2023-11-23T15:42:09.533Z,99601.97
2023-11-23T15:44:38.931Z,99594.38
2023-11-23T15:47:10.499Z,99601.97
2023-11-23T15:49:40.302Z,99605.38
2023-11-23T15:52:10.456Z,99607.91
2023-11-23T15:54:39.954Z,99612.09
2023-11-23T15:57:08.812Z,99604.44
2023-11-23T15:59:39.287Z,99619.63
2023-11-23T16:02:09.122Z,99605.16
2023-11-23T16:04:37.994Z,99613.69
2023-11-23T16:07:06.824Z,99606.91
2023-11-23T16:09:38.669Z,99598.44
2023-11-23T16:12:07.984Z,99597.56
2023-11-23T16:14:38.105Z,99589.91
2023-11-23T16:17:07.167Z,99582.28
2023-11-23T16:19:36.366Z,99559.25
2023-11-23T16:22:05.536Z,99571.22
2023-11-23T16:24:34.532Z,99558.50
2023-11-23T16:27:05.759Z,99542.31
2023-11-23T16:29:34.704Z,99564.38
2023-11-23T16:32:03.622Z,99567.75
2023-11-23T16:34:32.477Z,99556.69
2023-11-23T16:37:01.241Z,99560.97
2023-11-23T16:39:30.293Z,99567.75
2023-11-23T16:41:59.228Z,99554.19
2023-11-23T16:44:31.442Z,99546.56
2023-11-23T16:47:01.273Z,99539.78
2023-11-23T16:49:30.315Z,99537.25
2023-11-23T16:51:59.226Z,99527.13
2023-11-23T16:54:28.114Z,99516.91
2023-11-23T16:56:57.676Z,99523.78
2023-11-23T16:59:29.081Z,99530.53
2023-11-23T17:01:59.475Z,99528.06
2023-11-23T17:04:28.572Z,99523.78
2023-11-23T17:06:58.980Z,99527.19
2023-11-23T17:09:28.504Z,99525.47
2023-11-23T17:11:58.370Z,99524.59
2023-11-23T17:14:27.939Z,99516.94
2023-11-23T17:16:58.163Z,99511.88
2023-11-23T17:19:27.781Z,99503.44
2023-11-23T17:21:58.880Z,99499.97
2023-11-23T17:24:30.600Z,99497.50
2023-11-23T17:26:59.487Z,99502.63
2023-11-23T17:29:28.230Z,99494.97
2023-11-23T17:32:02.061Z,99484.03
2023-11-23T17:34:30.912Z,99474.72
2023-11-23T17:36:59.675Z,99469.59
2023-11-23T17:39:30.643Z,99439.91
2023-11-23T17:41:59.410Z,99458.69
2023-11-23T17:44:28.460Z,99428.91
2023-11-23T17:46:59.164Z,99445.97
2023-11-23T17:49:28.156Z,99454.41
2023-11-23T17:51:57.260Z,99442.63
2023-11-23T17:54:29.911Z,99437.50
2023-11-23T17:56:59.113Z,99434.16
2023-11-23T17:59:43.401Z,99433.31
2023-11-23T18:02:19.553Z,99425.72
2023-11-23T18:04:53.471Z,99424.13
2023-11-23T18:07:22.783Z,99420.78
2023-11-23T18:09:51.647Z,99417.34
2023-11-23T18:12:20.498Z,99414.00
2023-11-23T18:14:49.236Z,99406.44
2023-11-23T18:17:19.438Z,99405.59
2023-11-23T18:19:48.283Z,99400.56
2023-11-23T18:22:18.013Z,99401.41
2023-11-23T18:24:46.872Z,99390.44
2023-11-23T18:27:15.721Z,99313.13
2023-11-23T18:29:44.550Z,99386.22
2023-11-23T18:32:15.363Z,99374.38
2023-11-23T18:34:46.494Z,99373.56
2023-11-23T18:37:15.320Z,99360.06
2023-11-23T18:39:44.034Z,99358.41
2023-11-23T18:42:13.484Z,99349.97
2023-11-23T18:44:42.587Z,99339.00
2023-11-23T18:47:11.434Z,99341.56
2023-11-23T18:49:40.180Z,99328.06
2023-11-23T18:52:10.430Z,99333.97
2023-11-23T18:54:39.246Z,99337.41
2023-11-23T18:57:08.103Z,99341.63
2023-11-23T18:59:36.920Z,99326.44
2023-11-23T19:02:06.243Z,99317.22
2023-11-23T19:04:35.796Z,99312.13
2023-11-23T19:07:07.148Z,99301.13
2023-11-23T19:09:39.153Z,99302.84
2023-11-23T19:12:08.578Z,99298.66
2023-11-23T19:14:38.179Z,99295.25
2023-11-23T19:17:07.011Z,99287.63
2023-11-23T19:19:38.576Z,99291.81
2023-11-23T19:22:09.103Z,99291.00
2023-11-23T19:24:40.089Z,99294.34
2023-11-23T19:27:10.289Z,99296.81
2023-11-23T19:29:46.032Z,99304.47
2023-11-23T19:32:21.659Z,99293.38
2023-11-23T19:34:51.067Z,99304.53
2023-11-23T19:37:21.630Z,99297.75
2023-11-23T19:39:52.827Z,99291.88
2023-11-23T19:42:23.572Z,99288.53
2023-11-23T19:44:53.945Z,99277.56
2023-11-23T19:47:23.753Z,99277.56
2023-11-23T19:49:53.328Z,99279.22
2023-11-23T19:52:24.727Z,99270.78
2023-11-23T19:54:56.026Z,99261.50
2023-11-23T19:57:26.500Z,99248.00
2023-11-23T19:59:55.885Z,99255.63
2023-11-23T20:02:26.631Z,99251.44
2023-11-23T20:04:55.461Z,99243.00
2023-11-23T20:07:24.206Z,99242.19
2023-11-23T20:09:54.478Z,99239.69
2023-11-23T20:12:25.562Z,99231.28
2023-11-23T20:14:55.089Z,99214.34
2023-11-23T20:17:26.073Z,99210.19
2023-11-23T20:19:55.414Z,99213.63
2023-11-23T20:22:24.108Z,99217.03
2023-11-23T20:24:54.577Z,99213.66
2023-11-23T20:27:23.829Z,99217.06
2023-11-23T20:29:52.554Z,99204.41
2023-11-23T20:32:21.481Z,99190.06
2023-11-23T20:34:50.231Z,99136.53
2023-11-23T20:37:19.216Z,99179.91
2023-11-23T20:39:49.100Z,99188.31
2023-11-23T20:42:20.026Z,99179.81
2023-11-23T20:44:49.051Z,99176.47
2023-11-23T20:47:21.151Z,99168.03
2023-11-23T20:49:53.105Z,99162.97
2023-11-23T20:52:23.141Z,99151.16
2023-11-23T20:54:54.512Z,99142.75
2023-11-23T20:57:25.704Z,99128.38
2023-11-23T20:59:55.415Z,99137.75
2023-11-23T21:02:24.432Z,99133.53
2023-11-23T21:04:54.126Z,99125.94
2023-11-23T21:07:23.791Z,99103.97
2023-11-23T21:09:53.002Z,99112.47
2023-11-23T21:12:27.334Z,99104.91
2023-11-23T21:14:57.330Z,99099.88
2023-11-23T21:17:26.156Z,99092.28
2023-11-23T21:19:55.398Z,99080.47
2023-11-23T21:22:24.374Z,99072.81
2023-11-23T21:24:53.430Z,99062.72
2023-11-23T21:27:27.562Z,99069.50
2023-11-23T21:29:58.104Z,99066.97
2023-11-23T21:32:26.998Z,99065.31
2023-11-23T21:34:55.704Z,99058.53
2023-11-23T21:37:24.512Z,99056.00
2023-11-23T21:39:53.904Z,99056.84
2023-11-23T21:42:23.898Z,99045.03
2023-11-23T21:44:53.892Z,99045.03
2023-11-23T21:47:24.064Z,99045.91
2023-11-23T21:49:53.345Z,99033.25
2023-11-23T21:52:22.182Z,99034.06
2023-11-23T21:55:00.887Z,99023.94
2023-11-23T21:57:33.200Z,99025.66
2023-11-23T22:00:02.538Z,99024.75
2023-11-23T22:02:34.639Z,99011.22
2023-11-23T22:05:03.728Z,98983.31
2023-11-23T22:07:32.516Z,99004.50
2023-11-23T22:10:01.940Z,98984.22
2023-11-23T22:12:30.791Z,98982.53
2023-11-23T22:14:59.605Z,98980.84
2023-11-23T22:17:29.042Z,98962.25
2023-11-23T22:19:59.880Z,98957.22
2023-11-23T22:22:29.219Z,98959.75
2023-11-23T22:24:58.312Z,98887.78
2023-11-23T22:27:29.492Z,98947.09
2023-11-23T22:29:58.891Z,98921.69
2023-11-23T22:32:28.800Z,98902.28
2023-11-23T22:34:59.838Z,98905.72
2023-11-23T22:37:29.192Z,98909.91
2023-11-23T22:39:58.487Z,98895.56
2023-11-23T22:42:27.999Z,98897.25
2023-11-23T22:44:57.267Z,98870.16
2023-11-23T22:47:26.256Z,98869.34
2023-11-23T22:49:55.675Z,98857.50
2023-11-23T22:52:25.858Z,98844.00
2023-11-23T22:54:54.882Z,98843.97
2023-11-23T22:57:24.875Z,98837.22
2023-11-23T22:59:53.706Z,98835.50
2023-11-23T23:02:22.834Z,98832.13
2023-11-23T23:04:52.657Z,98819.44
2023-11-23T23:07:21.212Z,98822.78
2023-11-23T23:09:51.627Z,98809.25
2023-11-23T23:12:20.733Z,98799.94
2023-11-23T23:14:49.543Z,98794.06
2023-11-23T23:17:18.547Z,98799.97
2023-11-23T23:19:47.422Z,98790.69
2023-11-23T23:22:24.372Z,98778.81
2023-11-23T23:25:00.412Z,98786.41
2023-11-23T23:27:29.871Z,98782.22
2023-11-23T23:29:58.684Z,98780.50
2023-11-23T23:32:28.768Z,98767.84
2023-11-23T23:34:57.868Z,98767.88
2023-11-23T23:37:27.037Z,98777.97
2023-11-23T23:39:56.075Z,98752.66
2023-11-23T23:42:27.608Z,98769.56
2023-11-23T23:44:57.388Z,98770.44
2023-11-23T23:47:26.675Z,98754.44
2023-11-23T23:49:56.277Z,98751.06
2023-11-23T23:52:25.062Z,98750.25
2023-11-23T23:54:53.938Z,98746.06
2023-11-23T23:57:22.989Z,98737.66
2023-11-23T23:59:53.177Z,98712.31
